createdAt,value
2022-08-11T00:02:36.216Z,19.70
2022-08-11T00:05:12.169Z,19.80
2022-08-11T00:07:46.205Z,19.90
2022-08-11T00:10:16.564Z,19.80
2022-08-11T00:12:46.072Z,19.60
2022-08-11T00:15:15.004Z,19.50
2022-08-11T00:17:43.797Z,19.50
2022-08-11T00:20:17.149Z,19.40
2022-08-11T00:22:48.552Z,19.40
2022-08-11T00:25:19.537Z,19.30
2022-08-11T00:27:49.579Z,19.10
2022-08-11T00:30:18.285Z,19.30
2022-08-11T00:32:54.781Z,19.20
2022-08-11T00:35:53.752Z,19.20
2022-08-11T00:38:17.372Z,19.20
2022-08-11T00:40:53.097Z,19.10
2022-08-11T00:43:32.153Z,19.10
2022-08-11T00:46:13.725Z,19.10
2022-08-11T00:48:50.372Z,18.90
2022-08-11T00:52:04.515Z,18.80
2022-08-11T00:54:52.295Z,18.80
2022-08-11T00:58:02.728Z,18.70
2022-08-11T01:00:35.624Z,18.70
2022-08-11T01:03:32.411Z,18.40
2022-08-11T01:06:22.839Z,18.20
2022-08-11T01:09:27.328Z,18.10
2022-08-11T01:12:15.919Z,17.90
2022-08-11T01:15:27.667Z,17.70
2022-08-11T01:18:28.451Z,17.50
2022-08-11T01:21:38.615Z,17.30
2022-08-11T01:24:48.797Z,17.40
2022-08-11T01:27:50.788Z,17.30
2022-08-11T01:30:55.237Z,17.00
2022-08-11T01:34:05.750Z,17.20
2022-08-11T01:37:07.061Z,17.20
2022-08-11T01:40:05.565Z,17.30
2022-08-11T01:43:23.160Z,17.30
2022-08-11T01:45:57.347Z,17.30
2022-08-11T01:48:38.011Z,17.40
2022-08-11T01:51:24.147Z,17.40
2022-08-11T01:54:04.166Z,17.40
2022-08-11T01:56:59.062Z,17.50
2022-08-11T01:59:33.278Z,17.60
2022-08-11T02:02:46.031Z,18.10
2022-08-11T02:06:00.348Z,18.20
2022-08-11T02:08:44.843Z,18.40
2022-08-11T02:11:35.062Z,18.60
2022-08-11T02:14:14.560Z,18.60
2022-08-11T02:16:54.405Z,18.60
2022-08-11T02:19:46.111Z,18.60
2022-08-11T02:22:39.593Z,18.70
2022-08-11T02:25:10.771Z,18.50
2022-08-11T02:27:44.489Z,18.50
2022-08-11T02:30:15.559Z,18.50
2022-08-11T02:33:09.354Z,18.50
2022-08-11T02:35:45.786Z,18.50
2022-08-11T02:38:24.647Z,18.50
2022-08-11T02:41:02.227Z,18.50
2022-08-11T02:43:48.061Z,18.40
2022-08-11T02:46:27.942Z,18.30
2022-08-11T02:49:19.515Z,18.30
2022-08-11T02:52:05.081Z,18.30
2022-08-11T02:54:40.052Z,18.20
2022-08-11T02:57:17.081Z,18.30
2022-08-11T02:59:54.548Z,18.30
2022-08-11T03:02:33.072Z,18.10
2022-08-11T03:05:13.880Z,18.20
2022-08-11T03:07:54.083Z,18.20
2022-08-11T03:10:24.757Z,18.20
2022-08-11T03:13:27.184Z,18.00
2022-08-11T03:16:31.995Z,18.00
2022-08-11T03:19:13.100Z,18.10
2022-08-11T03:22:02.579Z,18.10
2022-08-11T03:24:41.075Z,18.10
2022-08-11T03:27:13.227Z,18.00
2022-08-11T03:29:48.828Z,18.20
2022-08-11T03:32:29.964Z,18.20
2022-08-11T03:35:01.481Z,18.20
2022-08-11T03:37:52.014Z,18.10
2022-08-11T03:40:54.585Z,18.00
2022-08-11T03:43:58.012Z,17.90
2022-08-11T03:46:46.380Z,17.90
2022-08-11T03:49:28.826Z,17.90
2022-08-11T03:52:07.333Z,17.90
2022-08-11T03:54:47.555Z,17.80
2022-08-11T03:57:59.377Z,17.80
2022-08-11T04:01:00.924Z,17.80
2022-08-11T04:03:58.975Z,17.80
2022-08-11T04:06:55.934Z,17.80
2022-08-11T04:09:57.428Z,17.80
2022-08-11T04:13:16.437Z,17.70
2022-08-11T04:16:29.746Z,17.60
2022-08-11T04:19:33.150Z,17.70
2022-08-11T04:22:29.156Z,17.70
2022-08-11T04:25:30.795Z,17.60
2022-08-11T04:28:42.932Z,17.60
2022-08-11T04:31:51.931Z,17.60
2022-08-11T04:34:45.737Z,17.60
2022-08-11T04:37:36.479Z,17.50
2022-08-11T04:40:48.159Z,17.50
2022-08-11T04:44:02.407Z,17.40
2022-08-11T04:47:00.909Z,17.40
2022-08-11T04:50:17.323Z,17.40
2022-08-11T04:53:32.321Z,17.40
2022-08-11T04:56:25.459Z,17.40
2022-08-11T04:59:38.634Z,17.40
2022-08-11T05:02:48.478Z,17.40
2022-08-11T05:05:33.680Z,17.40
2022-08-11T05:08:36.349Z,17.80
2022-08-11T05:11:38.036Z,18.90
2022-08-11T05:14:50.515Z,19.20
2022-08-11T05:17:54.538Z,19.60
2022-08-11T05:20:43.356Z,19.50
2022-08-11T05:23:29.888Z,19.60
2022-08-11T05:26:47.207Z,20.00
2022-08-11T05:29:54.843Z,20.00
2022-08-11T05:32:41.624Z,20.60
2022-08-11T05:35:11.210Z,20.60
2022-08-11T05:38:15.574Z,20.50
2022-08-11T05:41:10.239Z,21.30
2022-08-11T05:44:21.174Z,21.30
2022-08-11T05:47:09.060Z,21.20
2022-08-11T05:49:56.753Z,21.30
2022-08-11T05:52:47.017Z,21.50
2022-08-11T05:55:34.583Z,22.00
2022-08-11T05:58:05.122Z,21.70
2022-08-11T06:00:43.779Z,22.20
2022-08-11T06:03:13.171Z,22.60
2022-08-11T06:05:44.336Z,22.90
2022-08-11T06:08:13.829Z,23.30
2022-08-11T06:10:43.640Z,23.60
2022-08-11T06:13:15.884Z,23.30
2022-08-11T06:15:49.912Z,23.70
2022-08-11T06:18:19.411Z,23.50
2022-08-11T06:20:49.535Z,24.00
2022-08-11T06:23:20.616Z,23.90
2022-08-11T06:25:49.658Z,23.40
2022-08-11T06:28:21.377Z,23.60
2022-08-11T06:30:52.286Z,23.80
2022-08-11T06:33:31.208Z,23.80
2022-08-11T06:36:04.919Z,25.20
2022-08-11T06:38:50.595Z,25.60
2022-08-11T06:41:32.827Z,25.60
2022-08-11T06:44:08.608Z,26.80
2022-08-11T06:46:40.741Z,26.30
2022-08-11T06:49:30.314Z,25.20
2022-08-11T06:52:01.671Z,25.90
2022-08-11T06:54:34.174Z,26.20
2022-08-11T06:57:30.510Z,26.10
2022-08-11T07:00:17.847Z,26.70
2022-08-11T07:02:53.734Z,27.30
2022-08-11T07:05:25.904Z,27.60
2022-08-11T07:08:51.277Z,26.60
2022-08-11T07:12:04.034Z,27.10
2022-08-11T07:14:50.544Z,28.20
2022-08-11T07:17:23.306Z,29.40
2022-08-11T07:20:13.872Z,27.90
2022-08-11T07:23:02.281Z,28.80
2022-08-11T07:25:49.934Z,28.10
2022-08-11T07:28:40.416Z,28.30
2022-08-11T07:31:13.946Z,29.40
2022-08-11T07:34:06.953Z,30.00
2022-08-11T07:36:40.923Z,29.60
2022-08-11T07:39:18.197Z,28.80
2022-08-11T07:41:48.180Z,28.80
2022-08-11T07:44:17.494Z,29.30
2022-08-11T07:47:05.158Z,28.20
2022-08-11T07:49:53.988Z,29.00
2022-08-11T07:52:30.732Z,29.30
2022-08-11T07:55:01.546Z,29.50
2022-08-11T07:58:14.976Z,29.40
2022-08-11T08:00:56.974Z,29.30
2022-08-11T08:03:54.045Z,31.40
2022-08-11T08:06:41.297Z,29.80
2022-08-11T08:09:30.654Z,29.30
2022-08-11T08:12:19.304Z,29.70
2022-08-11T08:15:05.360Z,29.90
2022-08-11T08:18:20.640Z,29.90
2022-08-11T08:20:46.643Z,28.90
2022-08-11T08:23:15.793Z,29.70
2022-08-11T08:25:47.170Z,30.10
2022-08-11T08:28:18.808Z,29.30
2022-08-11T08:30:51.201Z,30.80
2022-08-11T08:33:22.970Z,30.20
2022-08-11T08:36:11.433Z,30.10
2022-08-11T08:38:42.436Z,31.30
2022-08-11T08:41:16.400Z,30.60
2022-08-11T08:43:48.581Z,31.70
2022-08-11T08:46:21.491Z,30.60
2022-08-11T08:48:52.152Z,30.60
2022-08-11T08:51:58.772Z,30.50
2022-08-11T08:54:30.036Z,30.90
2022-08-11T08:57:04.911Z,33.20
2022-08-11T08:59:48.025Z,30.90
2022-08-11T09:02:34.154Z,30.80
2022-08-11T09:05:10.191Z,30.10
2022-08-11T09:07:40.755Z,30.10
2022-08-11T09:10:11.489Z,30.60
2022-08-11T09:12:43.411Z,31.30
2022-08-11T09:15:14.062Z,30.90
2022-08-11T09:17:45.946Z,30.30
2022-08-11T09:20:16.365Z,30.50
2022-08-11T09:24:07.734Z,30.70
2022-08-11T09:26:14.037Z,31.30
2022-08-11T09:28:45.661Z,31.50
2022-08-11T09:31:15.300Z,31.70
2022-08-11T09:33:45.534Z,31.80
2022-08-11T09:36:32.109Z,32.20
2022-08-11T09:39:21.511Z,31.00
2022-08-11T09:42:00.687Z,31.40
2022-08-11T09:44:52.756Z,31.90
2022-08-11T09:47:24.405Z,31.80
2022-08-11T09:49:56.229Z,31.60
2022-08-11T09:52:25.875Z,32.30
2022-08-11T09:54:55.633Z,32.60
2022-08-11T09:57:42.459Z,31.50
2022-08-11T10:00:15.342Z,32.00
2022-08-11T10:02:46.189Z,31.70
2022-08-11T10:05:36.032Z,32.00
2022-08-11T10:08:06.046Z,32.10
2022-08-11T10:10:38.900Z,33.30
2022-08-11T10:14:30.471Z,35.50
2022-08-11T10:16:15.043Z,32.30
2022-08-11T10:18:52.948Z,31.50
2022-08-11T10:21:29.298Z,31.20
2022-08-11T10:24:18.547Z,32.60
2022-08-11T10:26:54.787Z,31.80
2022-08-11T10:29:44.417Z,32.20
2022-08-11T10:32:58.967Z,32.50
2022-08-11T10:35:29.525Z,32.70
2022-08-11T10:38:08.431Z,36.00
2022-08-11T10:40:41.471Z,35.00
2022-08-11T10:43:14.312Z,33.40
2022-08-11T10:46:03.025Z,34.00
2022-08-11T10:48:38.116Z,32.50
2022-08-11T10:51:14.255Z,32.30
2022-08-11T10:54:03.137Z,32.80
2022-08-11T10:56:52.155Z,34.00
2022-08-11T10:59:20.612Z,32.50
2022-08-11T11:01:48.906Z,33.30
2022-08-11T11:04:22.544Z,34.10
2022-08-11T11:06:57.814Z,32.50
2022-08-11T11:09:32.550Z,32.60
2022-08-11T11:12:22.600Z,33.40
2022-08-11T11:15:17.808Z,32.00
2022-08-11T11:18:01.692Z,32.10
2022-08-11T11:20:39.993Z,35.00
2022-08-11T11:23:16.682Z,33.50
2022-08-11T11:26:14.623Z,32.50
2022-08-11T11:29:15.057Z,32.60
2022-08-11T11:32:03.281Z,35.40
2022-08-11T11:35:05.954Z,33.20
2022-08-11T11:37:36.478Z,33.80
2022-08-11T11:40:11.442Z,33.10
2022-08-11T11:42:41.515Z,33.40
2022-08-11T11:45:23.249Z,33.50
2022-08-11T11:47:54.649Z,33.20
2022-08-11T11:50:31.688Z,33.10
2022-08-11T11:53:09.081Z,32.90
2022-08-11T11:55:38.240Z,32.90
2022-08-11T11:58:24.732Z,32.30
2022-08-11T12:01:12.138Z,33.00
2022-08-11T12:03:41.528Z,34.40
2022-08-11T12:06:14.251Z,33.10
2022-08-11T12:08:44.960Z,33.50
2022-08-11T12:11:31.923Z,32.40
2022-08-11T12:14:02.039Z,33.30
2022-08-11T12:16:36.475Z,34.50
2022-08-11T12:19:07.788Z,34.60
2022-08-11T12:21:38.114Z,32.60
2022-08-11T12:24:29.229Z,32.40
2022-08-11T12:27:17.633Z,33.30
2022-08-11T12:29:54.392Z,33.70
2022-08-11T12:32:26.433Z,34.40
2022-08-11T12:34:56.880Z,33.60
2022-08-11T12:37:30.564Z,34.10
2022-08-11T12:40:43.279Z,34.70
2022-08-11T12:43:38.084Z,33.50
2022-08-11T12:46:09.931Z,35.40
2022-08-11T12:49:02.731Z,33.50
2022-08-11T12:52:11.189Z,33.30
2022-08-11T12:54:57.447Z,33.80
2022-08-11T12:57:50.535Z,33.70
2022-08-11T13:00:38.422Z,34.40
2022-08-11T13:03:26.878Z,33.80
2022-08-11T13:05:57.927Z,33.60
2022-08-11T13:08:29.247Z,34.10
2022-08-11T13:11:17.664Z,33.50
2022-08-11T13:13:55.353Z,33.80
2022-08-11T13:16:29.054Z,33.60
2022-08-11T13:18:58.854Z,33.80
2022-08-11T13:21:29.277Z,33.80
2022-08-11T13:24:00.408Z,34.10
2022-08-11T13:26:41.553Z,34.60
2022-08-11T13:29:21.466Z,33.30
2022-08-11T13:31:50.388Z,33.80
2022-08-11T13:34:19.908Z,34.10
2022-08-11T13:36:52.210Z,34.40
2022-08-11T13:39:24.127Z,34.80
2022-08-11T13:41:54.525Z,33.60
2022-08-11T13:44:27.539Z,33.30
2022-08-11T13:46:58.760Z,33.50
2022-08-11T13:49:27.917Z,33.40
2022-08-11T13:51:57.278Z,33.80
2022-08-11T13:54:28.574Z,33.90
2022-08-11T13:57:01.003Z,33.40
2022-08-11T13:59:31.667Z,34.30
2022-08-11T14:02:22.305Z,34.70
2022-08-11T14:04:56.474Z,33.30
2022-08-11T14:07:28.562Z,33.70
2022-08-11T14:10:00.340Z,34.40
2022-08-11T14:12:48.747Z,34.10
2022-08-11T14:15:22.721Z,33.40
2022-08-11T14:17:56.791Z,33.60
2022-08-11T14:20:45.905Z,32.80
2022-08-11T14:23:15.047Z,33.40
2022-08-11T14:26:04.767Z,33.80
2022-08-11T14:28:44.013Z,33.80
2022-08-11T14:31:16.463Z,33.70
2022-08-11T14:34:00.607Z,33.80
2022-08-11T14:36:36.244Z,34.60
2022-08-11T14:39:08.040Z,35.00
2022-08-11T14:42:09.962Z,33.20
2022-08-11T14:45:18.195Z,33.30
2022-08-11T14:47:52.363Z,33.20
2022-08-11T14:50:25.061Z,33.30
2022-08-11T14:52:56.573Z,32.90
2022-08-11T14:55:44.035Z,33.80
2022-08-11T14:58:14.219Z,34.00
2022-08-11T15:00:43.872Z,33.20
2022-08-11T15:03:15.369Z,32.60
2022-08-11T15:05:56.030Z,32.20
2022-08-11T15:08:47.820Z,32.00
2022-08-11T15:11:35.803Z,32.40
2022-08-11T15:14:06.017Z,32.90
2022-08-11T15:16:53.000Z,33.50
2022-08-11T15:19:22.976Z,33.30
2022-08-11T15:22:09.087Z,34.00
2022-08-11T15:24:38.400Z,32.60
2022-08-11T15:27:28.431Z,32.60
2022-08-11T15:30:32.210Z,32.20
2022-08-11T15:33:23.167Z,32.60
2022-08-11T15:36:10.930Z,33.30
2022-08-11T15:38:46.088Z,32.80
2022-08-11T15:41:35.818Z,32.60
2022-08-11T15:44:51.277Z,32.10
2022-08-11T15:47:18.926Z,32.40
2022-08-11T15:50:10.813Z,32.60
2022-08-11T15:52:50.556Z,32.50
2022-08-11T15:55:23.550Z,32.30
2022-08-11T15:58:16.512Z,32.20
2022-08-11T16:01:08.829Z,32.30
2022-08-11T16:04:08.082Z,32.50
2022-08-11T16:06:47.775Z,32.40
2022-08-11T16:09:23.382Z,32.30
2022-08-11T16:11:56.016Z,32.50
2022-08-11T16:14:48.186Z,31.90
2022-08-11T16:17:19.799Z,31.70
2022-08-11T16:19:53.094Z,32.00
2022-08-11T16:22:33.318Z,33.60
2022-08-11T16:27:04.998Z,32.00
2022-08-11T16:27:58.372Z,31.90
2022-08-11T16:30:28.440Z,31.90
2022-08-11T16:33:48.983Z,31.80
2022-08-11T16:36:11.167Z,31.90
2022-08-11T16:38:43.853Z,31.80
2022-08-11T16:41:38.114Z,31.70
2022-08-11T16:44:36.902Z,31.90
2022-08-11T16:47:07.830Z,31.70
2022-08-11T16:49:39.552Z,31.50
2022-08-11T16:52:12.262Z,31.60
2022-08-11T16:54:44.429Z,31.30
2022-08-11T16:57:35.632Z,31.20
2022-08-11T17:00:07.908Z,31.20
2022-08-11T17:02:58.508Z,31.10
2022-08-11T17:05:54.322Z,31.20
2022-08-11T17:08:57.572Z,31.30
2022-08-11T17:11:46.056Z,31.00
2022-08-11T17:14:35.746Z,31.00
2022-08-11T17:17:06.951Z,30.90
2022-08-11T17:20:39.956Z,30.80
2022-08-11T17:22:47.184Z,30.80
2022-08-11T17:25:16.836Z,30.80
2022-08-11T17:27:46.659Z,30.80
2022-08-11T17:30:16.835Z,30.60
2022-08-11T17:33:12.384Z,30.60
2022-08-11T17:35:44.555Z,30.60
2022-08-11T17:38:15.937Z,30.60
2022-08-11T17:41:01.791Z,30.60
2022-08-11T17:43:48.886Z,30.50
2022-08-11T17:46:37.837Z,30.30
2022-08-11T17:49:11.229Z,30.30
2022-08-11T17:51:59.695Z,30.30
2022-08-11T17:54:46.207Z,30.20
2022-08-11T17:57:33.616Z,30.10
2022-08-11T18:00:02.998Z,30.00
2022-08-11T18:02:53.481Z,29.90
2022-08-11T18:05:24.945Z,29.90
2022-08-11T18:08:13.487Z,29.80
2022-08-11T18:11:00.362Z,29.60
2022-08-11T18:13:49.879Z,29.70
2022-08-11T18:16:37.066Z,29.60
2022-08-11T18:19:25.451Z,29.40
2022-08-11T18:22:16.170Z,29.30
2022-08-11T18:25:06.482Z,29.00
2022-08-11T18:28:11.073Z,29.00
2022-08-11T18:31:03.436Z,29.00
2022-08-11T18:34:07.109Z,28.80
2022-08-11T18:36:57.305Z,28.60
2022-08-11T18:39:46.245Z,28.30
2022-08-11T18:42:43.577Z,28.10
2022-08-11T18:45:45.163Z,27.90
2022-08-11T18:48:39.614Z,27.50
2022-08-11T18:51:30.468Z,27.20
2022-08-11T18:54:22.796Z,27.10
2022-08-11T18:57:09.125Z,27.10
2022-08-11T18:59:57.300Z,27.10
2022-08-11T19:02:48.405Z,27.10
2022-08-11T19:06:32.060Z,27.10
2022-08-11T19:08:47.740Z,27.00
2022-08-11T19:11:34.444Z,26.80
2022-08-11T19:14:28.841Z,26.60
2022-08-11T19:17:43.285Z,26.40
2022-08-11T19:20:26.236Z,26.40
2022-08-11T19:23:15.016Z,26.10
2022-08-11T19:26:02.813Z,25.90
2022-08-11T19:28:48.788Z,26.00
2022-08-11T19:31:35.120Z,25.80
2022-08-11T19:34:21.441Z,25.70
2022-08-11T19:37:08.814Z,25.80
2022-08-11T19:39:55.377Z,25.70
2022-08-11T19:42:41.841Z,25.40
2022-08-11T19:45:28.089Z,25.30
2022-08-11T19:48:31.282Z,25.10
2022-08-11T19:51:19.058Z,25.00
2022-08-11T19:54:07.825Z,24.60
2022-08-11T19:56:55.094Z,24.50
2022-08-11T19:59:41.568Z,24.20
2022-08-11T20:02:28.816Z,24.40
2022-08-11T20:05:14.531Z,24.30
2022-08-11T20:08:01.207Z,24.00
2022-08-11T20:10:49.862Z,23.70
2022-08-11T20:13:36.966Z,23.40
2022-08-11T20:16:28.235Z,23.40
2022-08-11T20:19:15.690Z,23.20
2022-08-11T20:22:05.914Z,23.10
2022-08-11T20:24:55.095Z,23.10
2022-08-11T20:27:44.071Z,23.20
2022-08-11T20:30:30.715Z,23.10
2022-08-11T20:33:17.132Z,23.20
2022-08-11T20:36:03.912Z,23.20
2022-08-11T20:38:51.608Z,23.20
2022-08-11T20:41:58.168Z,23.20
2022-08-11T20:44:48.219Z,23.20
2022-08-11T20:47:59.077Z,23.30
2022-08-11T20:50:45.604Z,23.20
2022-08-11T20:53:36.701Z,23.10
2022-08-11T20:56:28.698Z,22.90
2022-08-11T20:59:18.779Z,22.70
2022-08-11T21:02:10.534Z,22.60
2022-08-11T21:05:00.192Z,22.50
2022-08-11T21:07:57.255Z,22.20
2022-08-11T21:10:50.621Z,22.20
2022-08-11T21:13:39.358Z,22.30
2022-08-11T21:16:27.527Z,22.20
2022-08-11T21:19:59.604Z,22.20
2022-08-11T21:22:31.902Z,22.20
2022-08-11T21:25:18.766Z,22.00
2022-08-11T21:28:07.444Z,21.90
2022-08-11T21:30:57.970Z,21.80
2022-08-11T21:33:45.663Z,21.80
2022-08-11T21:36:34.904Z,21.80
2022-08-11T21:39:24.994Z,21.70
2022-08-11T21:42:12.170Z,21.50
2022-08-11T21:45:00.454Z,21.50
2022-08-11T21:47:47.259Z,21.50
2022-08-11T21:50:32.866Z,21.50
2022-08-11T21:53:20.520Z,21.40
2022-08-11T21:56:08.464Z,21.30
2022-08-11T21:58:55.280Z,21.30
2022-08-11T22:01:41.968Z,21.10
2022-08-11T22:04:29.385Z,21.10
2022-08-11T22:07:16.006Z,20.90
2022-08-11T22:10:27.366Z,20.80
2022-08-11T22:13:08.986Z,20.70
2022-08-11T22:15:55.805Z,20.60
2022-08-11T22:18:43.673Z,20.60
2022-08-11T22:22:01.471Z,20.60
2022-08-11T22:24:36.311Z,20.70
2022-08-11T22:27:24.681Z,20.80
2022-08-11T22:30:10.130Z,20.90
2022-08-11T22:32:56.838Z,21.20
2022-08-11T22:35:42.689Z,21.60
2022-08-11T22:38:28.629Z,21.90
2022-08-11T22:41:14.241Z,21.80
2022-08-11T22:44:01.543Z,22.10
2022-08-11T22:46:49.033Z,22.20
2022-08-11T22:49:42.445Z,22.10
2022-08-11T22:52:42.047Z,22.50
2022-08-11T22:55:28.790Z,22.70
2022-08-11T22:58:14.754Z,22.60
2022-08-11T23:01:02.611Z,22.40
2022-08-11T23:03:49.757Z,22.30
2022-08-11T23:06:36.963Z,22.20
2022-08-11T23:09:23.703Z,22.10
2022-08-11T23:12:10.938Z,21.90
2022-08-11T23:14:58.832Z,21.90
2022-08-11T23:17:46.420Z,21.60
2022-08-11T23:20:37.746Z,21.50
2022-08-11T23:23:26.086Z,21.30
2022-08-11T23:26:14.005Z,21.00
2022-08-11T23:29:05.252Z,21.20
2022-08-11T23:31:53.428Z,21.10
2022-08-11T23:35:04.252Z,21.00
2022-08-11T23:37:49.231Z,20.90
2022-08-11T23:40:34.695Z,20.80
2022-08-11T23:43:20.696Z,20.60
2022-08-11T23:46:06.229Z,20.50
2022-08-11T23:48:52.153Z,20.40
2022-08-11T23:51:40.740Z,20.30
2022-08-11T23:54:28.361Z,20.20
2022-08-11T23:57:14.342Z,20.10
